Airfield :
LOGIN :

Register | Disclaimer

   EN    FR    IT 

 










Legend :    VFR   Marginal VFR   IFR   Intensive IFR   Very Intensive IFR
Visi :
Ceiling :
>= 8 km
>= 3000ft
5 to 8 km
1000 to 3000 ft
1500m to 5 km
500 to 1000 ft
800 to 1500m
200 to 500 ft
< 800m
< 200 ft
Symbols :   Thunderstorms  Fog  Heavy snow  Heavy precipitations  Wind > 20 kt
SIGMETs :     Misc.  Thunderstorms  Icing  Turbulence  Mountain Waves  Volcanic Ashes






- Airport Elevation : 616 ft
- IATA code : PUF


LFBP - Pau

CURRENT METAR :
  • 280000Z AUTO 24004KT 5000 -DZ BR BKN006 OVC011 11/10 Q1022 TEMPO 2500 -RADZ

EXPIRED METARs :
  • 272330Z AUTO 23004KT 9999 SCT003 BKN008 BKN012 11/11 Q1022 TEMPO 2500 -RADZ
  • 272300Z AUTO VRB03KT 6000 -DZ BKN004 BKN008 OVC015 11/11 Q1022 TEMPO 2500 RA BECMG BKN009 OVC020
  • 272230Z AUTO 25004KT 7000 DZ BKN004/// BKN008/// OVC014/// ///TCU 11/11 Q1022 TEMPO 2500 RA BECMG BKN009 OVC020
  • 272200Z AUTO 25004KT 6000 -DZ BKN005 OVC015 11/11 Q1022 NOSIG
  • 272130Z AUTO 25005KT 9000 -RA BKN007 BKN012 OVC025 11/11 Q1021 NOSIG

TAF TAF LFBP
Valid from the 28 at 00:00 until the 29 at 00:00 UTC


272300Z 2800/2824 24006KT 9999 BKN016 OVC020
TEMPO 2800/2806 2500 -RADZ OVC005
BECMG 2806/2808 BKN030
BECMG 2810/2812 CAVOK
BECMG 2816/2818 09010KT



MET'MAP, your aeronautical weather chart ! - Copyright ORBIFLY December 2007 - Disclaimer

ORBIFLY MET'MAP TEAM :

Programming & Development : Alexandra Zaïnal
Concept & original design : Baudouin d'Aumeries
Assistance for programming : Marc-Olivier Méhu
Technical & hardware support : Manuel Goepfert

Contact : metmap@orbifly.com




SOURCES & CREDITS :

   NOAA